sensor_id;sensor_type;location;lat;lon;timestamp;P1;durP1;ratioP1;P2;durP2;ratioP2
12840;SDS011;6487;48.626;12.486;2023-03-23T00:02:22;3.83;;;3.23;;
12840;SDS011;6487;48.626;12.486;2023-03-23T00:04:50;5.10;;;2.90;;
12840;SDS011;6487;48.626;12.486;2023-03-23T00:07:19;5.47;;;3.20;;
12840;SDS011;6487;48.626;12.486;2023-03-23T00:09:47;4.70;;;3.50;;
12840;SDS011;6487;48.626;12.486;2023-03-23T00:12:20;3.67;;;3.30;;
12840;SDS011;6487;48.626;12.486;2023-03-23T00:14:54;3.70;;;3.10;;
12840;SDS011;6487;48.626;12.486;2023-03-23T00:17:21;3.60;;;3.30;;
12840;SDS011;6487;48.626;12.486;2023-03-23T00:19:48;4.37;;;3.47;;
12840;SDS011;6487;48.626;12.486;2023-03-23T00:22:16;3.97;;;3.53;;
12840;SDS011;6487;48.626;12.486;2023-03-23T00:24:47;3.83;;;3.43;;
12840;SDS011;6487;48.626;12.486;2023-03-23T00:27:15;3.57;;;3.27;;
12840;SDS011;6487;48.626;12.486;2023-03-23T00:29:43;4.87;;;3.50;;
12840;SDS011;6487;48.626;12.486;2023-03-23T00:32:12;4.30;;;3.30;;
12840;SDS011;6487;48.626;12.486;2023-03-23T00:34:41;4.33;;;3.57;;
12840;SDS011;6487;48.626;12.486;2023-03-23T00:37:11;4.57;;;3.53;;
12840;SDS011;6487;48.626;12.486;2023-03-23T00:39:41;3.90;;;3.50;;
12840;SDS011;6487;48.626;12.486;2023-03-23T00:42:12;5.63;;;4.07;;
12840;SDS011;6487;48.626;12.486;2023-03-23T00:44:41;4.50;;;3.17;;
12840;SDS011;6487;48.626;12.486;2023-03-23T00:47:10;4.13;;;2.90;;
12840;SDS011;6487;48.626;12.486;2023-03-23T00:49:41;4.33;;;3.40;;
12840;SDS011;6487;48.626;12.486;2023-03-23T00:52:09;3.57;;;2.60;;
12840;SDS011;6487;48.626;12.486;2023-03-23T00:54:39;3.57;;;3.27;;
12840;SDS011;6487;48.626;12.486;2023-03-23T00:57:06;3.90;;;3.50;;
12840;SDS011;6487;48.626;12.486;2023-03-23T00:59:36;4.43;;;2.90;;
12840;SDS011;6487;48.626;12.486;2023-03-23T01:02:03;3.00;;;2.70;;
12840;SDS011;6487;48.626;12.486;2023-03-23T01:04:31;4.00;;;3.00;;
12840;SDS011;6487;48.626;12.486;2023-03-23T01:07:01;4.17;;;3.80;;
12840;SDS011;6487;48.626;12.486;2023-03-23T01:09:30;3.60;;;3.10;;
12840;SDS011;6487;48.626;12.486;2023-03-23T01:11:57;3.27;;;2.97;;
12840;SDS011;6487;48.626;12.486;2023-03-23T01:14:24;3.87;;;3.17;;
12840;SDS011;6487;48.626;12.486;2023-03-23T01:16:53;3.47;;;3.17;;
12840;SDS011;6487;48.626;12.486;2023-03-23T01:19:23;3.30;;;2.93;;
12840;SDS011;6487;48.626;12.486;2023-03-23T01:21:50;3.90;;;2.97;;
12840;SDS011;6487;48.626;12.486;2023-03-23T01:24:18;4.13;;;3.60;;
12840;SDS011;6487;48.626;12.486;2023-03-23T01:26:45;3.13;;;2.87;;
12840;SDS011;6487;48.626;12.486;2023-03-23T01:29:12;4.40;;;3.17;;
12840;SDS011;6487;48.626;12.486;2023-03-23T01:31:39;3.57;;;3.27;;
12840;SDS011;6487;48.626;12.486;2023-03-23T01:34:09;4.03;;;3.20;;
12840;SDS011;6487;48.626;12.486;2023-03-23T01:36:39;3.27;;;2.97;;
12840;SDS011;6487;48.626;12.486;2023-03-23T01:39:06;3.37;;;3.07;;
12840;SDS011;6487;48.626;12.486;2023-03-23T01:41:34;3.93;;;3.53;;
12840;SDS011;6487;48.626;12.486;2023-03-23T01:44:02;5.77;;;3.40;;
12840;SDS011;6487;48.626;12.486;2023-03-23T01:46:32;3.67;;;3.17;;
12840;SDS011;6487;48.626;12.486;2023-03-23T01:49:02;7.13;;;3.17;;
12840;SDS011;6487;48.626;12.486;2023-03-23T01:51:36;3.23;;;2.93;;
12840;SDS011;6487;48.626;12.486;2023-03-23T01:54:09;3.17;;;2.87;;
12840;SDS011;6487;48.626;12.486;2023-03-23T01:56:40;3.47;;;2.83;;
12840;SDS011;6487;48.626;12.486;2023-03-23T01:59:14;5.37;;;3.37;;
12840;SDS011;6487;48.626;12.486;2023-03-23T02:01:41;3.73;;;3.40;;
12840;SDS011;6487;48.626;12.486;2023-03-23T02:04:10;3.10;;;2.80;;
12840;SDS011;6487;48.626;12.486;2023-03-23T02:06:41;3.30;;;3.00;;
12840;SDS011;6487;48.626;12.486;2023-03-23T02:09:09;4.47;;;3.20;;
12840;SDS011;6487;48.626;12.486;2023-03-23T02:11:38;3.97;;;3.10;;
12840;SDS011;6487;48.626;12.486;2023-03-23T02:14:06;3.80;;;3.20;;
12840;SDS011;6487;48.626;12.486;2023-03-23T02:16:38;4.40;;;3.20;;
12840;SDS011;6487;48.626;12.486;2023-03-23T02:19:22;3.67;;;3.07;;
12840;SDS011;6487;48.626;12.486;2023-03-23T02:28:34;3.23;;;2.93;;
12840;SDS011;6487;48.626;12.486;2023-03-23T02:31:43;3.33;;;2.80;;
12840;SDS011;6487;48.626;12.486;2023-03-23T02:34:36;2.80;;;2.60;;
12840;SDS011;6487;48.626;12.486;2023-03-23T02:37:09;3.07;;;2.83;;
12840;SDS011;6487;48.626;12.486;2023-03-23T02:39:42;3.90;;;2.93;;
12840;SDS011;6487;48.626;12.486;2023-03-23T02:42:14;6.00;;;3.10;;
12840;SDS011;6487;48.626;12.486;2023-03-23T02:44:45;2.90;;;2.57;;
12840;SDS011;6487;48.626;12.486;2023-03-23T02:47:16;4.80;;;3.00;;
12840;SDS011;6487;48.626;12.486;2023-03-23T02:49:50;3.00;;;2.70;;
12840;SDS011;6487;48.626;12.486;2023-03-23T02:52:21;3.70;;;3.40;;
12840;SDS011;6487;48.626;12.486;2023-03-23T02:54:52;4.30;;;2.97;;
12840;SDS011;6487;48.626;12.486;2023-03-23T02:57:21;2.90;;;2.70;;
12840;SDS011;6487;48.626;12.486;2023-03-23T02:59:50;4.70;;;2.90;;
12840;SDS011;6487;48.626;12.486;2023-03-23T03:02:17;4.17;;;2.90;;
12840;SDS011;6487;48.626;12.486;2023-03-23T03:04:51;3.77;;;3.47;;
12840;SDS011;6487;48.626;12.486;2023-03-23T03:07:33;3.20;;;2.90;;
12840;SDS011;6487;48.626;12.486;2023-03-23T03:10:14;6.90;;;3.50;;
12840;SDS011;6487;48.626;12.486;2023-03-23T03:12:52;4.67;;;4.00;;
12840;SDS011;6487;48.626;12.486;2023-03-23T03:15:25;5.57;;;3.13;;
12840;SDS011;6487;48.626;12.486;2023-03-23T03:18:00;4.77;;;3.37;;
12840;SDS011;6487;48.626;12.486;2023-03-23T03:20:40;3.53;;;3.23;;
12840;SDS011;6487;48.626;12.486;2023-03-23T03:23:11;3.50;;;3.20;;
12840;SDS011;6487;48.626;12.486;2023-03-23T03:25:41;3.90;;;3.50;;
12840;SDS011;6487;48.626;12.486;2023-03-23T03:28:13;4.93;;;3.97;;
12840;SDS011;6487;48.626;12.486;2023-03-23T03:30:46;4.27;;;3.87;;
12840;SDS011;6487;48.626;12.486;2023-03-23T03:33:19;4.37;;;3.27;;
12840;SDS011;6487;48.626;12.486;2023-03-23T03:35:51;4.20;;;3.10;;
12840;SDS011;6487;48.626;12.486;2023-03-23T03:38:21;4.47;;;3.47;;
12840;SDS011;6487;48.626;12.486;2023-03-23T03:40:49;3.13;;;2.80;;
12840;SDS011;6487;48.626;12.486;2023-03-23T03:43:16;4.97;;;4.40;;
12840;SDS011;6487;48.626;12.486;2023-03-23T03:45:44;3.70;;;3.40;;
12840;SDS011;6487;48.626;12.486;2023-03-23T03:48:12;4.33;;;3.20;;
12840;SDS011;6487;48.626;12.486;2023-03-23T03:50:41;5.03;;;3.13;;
12840;SDS011;6487;48.626;12.486;2023-03-23T03:53:10;4.07;;;3.20;;
12840;SDS011;6487;48.626;12.486;2023-03-23T03:55:38;4.30;;;3.37;;
12840;SDS011;6487;48.626;12.486;2023-03-23T03:58:10;4.00;;;3.53;;
12840;SDS011;6487;48.626;12.486;2023-03-23T04:00:40;3.37;;;3.07;;
12840;SDS011;6487;48.626;12.486;2023-03-23T04:03:07;4.00;;;3.60;;
12840;SDS011;6487;48.626;12.486;2023-03-23T04:05:34;3.97;;;3.30;;
12840;SDS011;6487;48.626;12.486;2023-03-23T04:08:02;6.23;;;3.73;;
12840;SDS011;6487;48.626;12.486;2023-03-23T04:10:31;4.17;;;3.53;;
12840;SDS011;6487;48.626;12.486;2023-03-23T04:12:59;4.50;;;3.57;;
12840;SDS011;6487;48.626;12.486;2023-03-23T04:15:26;3.80;;;3.50;;
12840;SDS011;6487;48.626;12.486;2023-03-23T04:17:56;3.80;;;3.40;;
12840;SDS011;6487;48.626;12.486;2023-03-23T04:20:24;4.37;;;3.63;;
12840;SDS011;6487;48.626;12.486;2023-03-23T04:22:51;4.60;;;3.77;;
12840;SDS011;6487;48.626;12.486;2023-03-23T04:25:20;5.40;;;3.83;;
12840;SDS011;6487;48.626;12.486;2023-03-23T04:27:49;4.83;;;3.77;;
12840;SDS011;6487;48.626;12.486;2023-03-23T04:30:18;4.87;;;3.97;;
12840;SDS011;6487;48.626;12.486;2023-03-23T04:32:48;3.97;;;3.43;;
12840;SDS011;6487;48.626;12.486;2023-03-23T04:35:19;4.60;;;3.43;;
12840;SDS011;6487;48.626;12.486;2023-03-23T04:37:50;5.33;;;4.00;;
12840;SDS011;6487;48.626;12.486;2023-03-23T04:40:17;4.83;;;4.33;;
12840;SDS011;6487;48.626;12.486;2023-03-23T04:42:46;4.57;;;4.10;;
12840;SDS011;6487;48.626;12.486;2023-03-23T04:45:16;4.63;;;4.03;;
12840;SDS011;6487;48.626;12.486;2023-03-23T04:47:46;3.93;;;3.57;;
12840;SDS011;6487;48.626;12.486;2023-03-23T04:50:18;4.87;;;3.80;;
12840;SDS011;6487;48.626;12.486;2023-03-23T04:52:49;4.00;;;3.60;;
12840;SDS011;6487;48.626;12.486;2023-03-23T04:55:19;4.77;;;4.20;;
12840;SDS011;6487;48.626;12.486;2023-03-23T04:57:47;4.30;;;3.70;;
12840;SDS011;6487;48.626;12.486;2023-03-23T05:00:16;4.30;;;3.90;;
12840;SDS011;6487;48.626;12.486;2023-03-23T05:02:46;4.43;;;4.03;;
12840;SDS011;6487;48.626;12.486;2023-03-23T05:05:16;4.63;;;3.80;;
12840;SDS011;6487;48.626;12.486;2023-03-23T05:07:45;7.40;;;4.60;;
12840;SDS011;6487;48.626;12.486;2023-03-23T05:10:13;8.53;;;4.20;;
12840;SDS011;6487;48.626;12.486;2023-03-23T05:12:42;7.73;;;4.70;;
12840;SDS011;6487;48.626;12.486;2023-03-23T05:15:10;5.23;;;4.20;;
12840;SDS011;6487;48.626;12.486;2023-03-23T05:17:40;7.47;;;4.73;;
12840;SDS011;6487;48.626;12.486;2023-03-23T05:20:09;5.87;;;4.27;;
12840;SDS011;6487;48.626;12.486;2023-03-23T05:22:38;5.83;;;4.33;;
12840;SDS011;6487;48.626;12.486;2023-03-23T05:25:06;4.73;;;4.23;;
12840;SDS011;6487;48.626;12.486;2023-03-23T05:27:37;4.53;;;4.10;;
12840;SDS011;6487;48.626;12.486;2023-03-23T05:30:08;6.87;;;4.23;;
12840;SDS011;6487;48.626;12.486;2023-03-23T05:32:36;5.67;;;5.17;;
12840;SDS011;6487;48.626;12.486;2023-03-23T05:35:05;4.60;;;4.00;;
12840;SDS011;6487;48.626;12.486;2023-03-23T05:37:33;6.17;;;4.30;;
12840;SDS011;6487;48.626;12.486;2023-03-23T05:40:01;5.17;;;4.17;;
12840;SDS011;6487;48.626;12.486;2023-03-23T05:42:31;4.63;;;4.20;;
12840;SDS011;6487;48.626;12.486;2023-03-23T05:44:59;4.50;;;4.10;;
12840;SDS011;6487;48.626;12.486;2023-03-23T05:47:30;5.67;;;4.40;;
12840;SDS011;6487;48.626;12.486;2023-03-23T05:49:58;6.27;;;4.73;;
12840;SDS011;6487;48.626;12.486;2023-03-23T05:52:29;5.80;;;4.77;;
12840;SDS011;6487;48.626;12.486;2023-03-23T05:54:57;6.50;;;4.80;;
12840;SDS011;6487;48.626;12.486;2023-03-23T05:57:29;4.77;;;4.23;;
12840;SDS011;6487;48.626;12.486;2023-03-23T05:59:56;4.87;;;4.37;;
12840;SDS011;6487;48.626;12.486;2023-03-23T06:02:24;7.20;;;5.30;;
12840;SDS011;6487;48.626;12.486;2023-03-23T06:04:54;6.77;;;5.27;;
12840;SDS011;6487;48.626;12.486;2023-03-23T06:07:23;5.93;;;5.33;;
12840;SDS011;6487;48.626;12.486;2023-03-23T06:09:52;8.20;;;5.60;;
12840;SDS011;6487;48.626;12.486;2023-03-23T06:12:19;8.63;;;6.77;;
12840;SDS011;6487;48.626;12.486;2023-03-23T06:14:47;7.83;;;6.70;;
12840;SDS011;6487;48.626;12.486;2023-03-23T06:17:15;6.90;;;6.20;;
12840;SDS011;6487;48.626;12.486;2023-03-23T06:19:43;7.97;;;7.17;;
12840;SDS011;6487;48.626;12.486;2023-03-23T06:22:12;9.90;;;7.20;;
12840;SDS011;6487;48.626;12.486;2023-03-23T06:24:39;8.43;;;7.27;;
12840;SDS011;6487;48.626;12.486;2023-03-23T06:27:08;8.80;;;7.83;;
12840;SDS011;6487;48.626;12.486;2023-03-23T06:29:35;8.90;;;6.90;;
12840;SDS011;6487;48.626;12.486;2023-03-23T06:32:05;9.43;;;8.53;;
12840;SDS011;6487;48.626;12.486;2023-03-23T06:34:32;8.63;;;7.73;;
12840;SDS011;6487;48.626;12.486;2023-03-23T06:37:00;11.17;;;8.30;;
12840;SDS011;6487;48.626;12.486;2023-03-23T06:39:27;7.87;;;6.80;;
12840;SDS011;6487;48.626;12.486;2023-03-23T06:41:58;7.47;;;5.90;;
12840;SDS011;6487;48.626;12.486;2023-03-23T06:44:26;4.70;;;4.27;;
12840;SDS011;6487;48.626;12.486;2023-03-23T06:46:54;7.20;;;5.10;;
12840;SDS011;6487;48.626;12.486;2023-03-23T06:49:21;5.83;;;4.37;;
12840;SDS011;6487;48.626;12.486;2023-03-23T06:51:49;5.37;;;4.53;;
12840;SDS011;6487;48.626;12.486;2023-03-23T06:54:16;5.73;;;5.20;;
12840;SDS011;6487;48.626;12.486;2023-03-23T06:56:43;11.47;;;5.40;;
12840;SDS011;6487;48.626;12.486;2023-03-23T06:59:11;4.60;;;4.20;;
12840;SDS011;6487;48.626;12.486;2023-03-23T07:01:40;5.60;;;3.63;;
12840;SDS011;6487;48.626;12.486;2023-03-23T07:04:07;4.93;;;3.67;;
12840;SDS011;6487;48.626;12.486;2023-03-23T07:06:34;3.83;;;3.43;;
12840;SDS011;6487;48.626;12.486;2023-03-23T07:09:03;4.00;;;3.60;;
12840;SDS011;6487;48.626;12.486;2023-03-23T07:11:31;4.43;;;4.07;;
12840;SDS011;6487;48.626;12.486;2023-03-23T07:13:59;4.00;;;3.60;;
12840;SDS011;6487;48.626;12.486;2023-03-23T07:16:26;5.63;;;4.30;;
12840;SDS011;6487;48.626;12.486;2023-03-23T07:18:55;5.93;;;4.83;;
12840;SDS011;6487;48.626;12.486;2023-03-23T07:21:22;4.43;;;4.00;;
12840;SDS011;6487;48.626;12.486;2023-03-23T07:23:50;6.43;;;4.43;;
12840;SDS011;6487;48.626;12.486;2023-03-23T07:26:17;4.50;;;4.10;;
12840;SDS011;6487;48.626;12.486;2023-03-23T07:28:44;4.87;;;4.37;;
12840;SDS011;6487;48.626;12.486;2023-03-23T07:31:12;4.83;;;3.90;;
12840;SDS011;6487;48.626;12.486;2023-03-23T07:33:39;5.23;;;4.67;;
12840;SDS011;6487;48.626;12.486;2023-03-23T07:36:08;4.73;;;4.00;;
12840;SDS011;6487;48.626;12.486;2023-03-23T07:38:37;5.33;;;4.00;;
12840;SDS011;6487;48.626;12.486;2023-03-23T07:41:05;4.93;;;4.37;;
12840;SDS011;6487;48.626;12.486;2023-03-23T07:43:32;5.83;;;4.53;;
12840;SDS011;6487;48.626;12.486;2023-03-23T07:45:59;4.50;;;4.07;;
12840;SDS011;6487;48.626;12.486;2023-03-23T07:48:30;6.87;;;4.57;;
12840;SDS011;6487;48.626;12.486;2023-03-23T07:50:58;5.70;;;4.80;;
12840;SDS011;6487;48.626;12.486;2023-03-23T07:53:27;5.77;;;4.80;;
12840;SDS011;6487;48.626;12.486;2023-03-23T07:55:54;5.30;;;4.80;;
12840;SDS011;6487;48.626;12.486;2023-03-23T07:58:21;4.87;;;4.33;;
12840;SDS011;6487;48.626;12.486;2023-03-23T08:00:48;6.73;;;6.00;;
12840;SDS011;6487;48.626;12.486;2023-03-23T08:03:18;6.97;;;4.47;;
12840;SDS011;6487;48.626;12.486;2023-03-23T08:05:45;6.63;;;4.30;;
12840;SDS011;6487;48.626;12.486;2023-03-23T08:08:13;4.50;;;3.80;;
12840;SDS011;6487;48.626;12.486;2023-03-23T08:10:42;6.00;;;4.47;;
12840;SDS011;6487;48.626;12.486;2023-03-23T08:13:09;7.60;;;5.13;;
12840;SDS011;6487;48.626;12.486;2023-03-23T08:15:36;6.70;;;4.17;;
12840;SDS011;6487;48.626;12.486;2023-03-23T08:18:04;4.83;;;4.33;;
12840;SDS011;6487;48.626;12.486;2023-03-23T08:20:31;5.13;;;4.50;;
12840;SDS011;6487;48.626;12.486;2023-03-23T08:22:59;7.53;;;4.90;;
12840;SDS011;6487;48.626;12.486;2023-03-23T08:25:27;5.23;;;4.63;;
12840;SDS011;6487;48.626;12.486;2023-03-23T08:27:57;4.90;;;4.10;;
12840;SDS011;6487;48.626;12.486;2023-03-23T08:30:27;5.13;;;4.70;;
12840;SDS011;6487;48.626;12.486;2023-03-23T08:32:58;4.83;;;4.33;;
12840;SDS011;6487;48.626;12.486;2023-03-23T08:35:26;6.33;;;4.20;;
12840;SDS011;6487;48.626;12.486;2023-03-23T08:37:54;6.57;;;4.10;;
12840;SDS011;6487;48.626;12.486;2023-03-23T08:40:22;4.53;;;4.13;;
12840;SDS011;6487;48.626;12.486;2023-03-23T08:42:51;4.50;;;4.10;;
12840;SDS011;6487;48.626;12.486;2023-03-23T08:45:22;4.67;;;4.10;;
12840;SDS011;6487;48.626;12.486;2023-03-23T08:47:51;3.80;;;3.50;;
12840;SDS011;6487;48.626;12.486;2023-03-23T08:50:21;5.73;;;4.70;;
12840;SDS011;6487;48.626;12.486;2023-03-23T08:52:52;4.67;;;4.13;;
12840;SDS011;6487;48.626;12.486;2023-03-23T08:55:20;4.37;;;4.00;;
12840;SDS011;6487;48.626;12.486;2023-03-23T08:57:48;4.20;;;3.80;;
12840;SDS011;6487;48.626;12.486;2023-03-23T09:00:17;4.33;;;3.63;;
12840;SDS011;6487;48.626;12.486;2023-03-23T09:02:50;6.77;;;4.10;;
12840;SDS011;6487;48.626;12.486;2023-03-23T09:05:19;4.93;;;4.43;;
12840;SDS011;6487;48.626;12.486;2023-03-23T09:07:51;4.73;;;4.33;;
12840;SDS011;6487;48.626;12.486;2023-03-23T09:10:24;5.53;;;3.90;;
12840;SDS011;6487;48.626;12.486;2023-03-23T09:12:55;4.07;;;3.73;;
12840;SDS011;6487;48.626;12.486;2023-03-23T09:15:24;4.50;;;4.10;;
12840;SDS011;6487;48.626;12.486;2023-03-23T09:17:52;4.63;;;4.23;;
12840;SDS011;6487;48.626;12.486;2023-03-23T09:20:22;5.20;;;4.37;;
12840;SDS011;6487;48.626;12.486;2023-03-23T09:22:52;4.60;;;3.80;;
12840;SDS011;6487;48.626;12.486;2023-03-23T09:25:23;4.40;;;3.97;;
12840;SDS011;6487;48.626;12.486;2023-03-23T09:27:53;6.23;;;3.77;;
12840;SDS011;6487;48.626;12.486;2023-03-23T09:30:23;5.90;;;3.93;;
12840;SDS011;6487;48.626;12.486;2023-03-23T09:32:55;4.07;;;3.67;;
12840;SDS011;6487;48.626;12.486;2023-03-23T09:35:26;8.00;;;4.03;;
12840;SDS011;6487;48.626;12.486;2023-03-23T09:37:54;4.73;;;4.23;;
12840;SDS011;6487;48.626;12.486;2023-03-23T09:40:22;4.80;;;3.97;;
12840;SDS011;6487;48.626;12.486;2023-03-23T09:43:00;7.73;;;4.33;;
12840;SDS011;6487;48.626;12.486;2023-03-23T09:46:00;4.23;;;3.80;;
12840;SDS011;6487;48.626;12.486;2023-03-23T09:48:45;4.30;;;3.93;;
12840;SDS011;6487;48.626;12.486;2023-03-23T09:51:20;5.63;;;3.67;;
12840;SDS011;6487;48.626;12.486;2023-03-23T09:54:00;4.27;;;3.67;;
12840;SDS011;6487;48.626;12.486;2023-03-23T09:56:32;4.17;;;3.80;;
12840;SDS011;6487;48.626;12.486;2023-03-23T09:59:02;4.93;;;4.07;;
12840;SDS011;6487;48.626;12.486;2023-03-23T10:01:41;3.43;;;3.13;;
12840;SDS011;6487;48.626;12.486;2023-03-23T10:04:15;3.87;;;3.10;;
12840;SDS011;6487;48.626;12.486;2023-03-23T10:06:53;4.03;;;3.20;;
12840;SDS011;6487;48.626;12.486;2023-03-23T10:09:25;3.53;;;3.00;;
12840;SDS011;6487;48.626;12.486;2023-03-23T10:11:57;3.40;;;3.10;;
12840;SDS011;6487;48.626;12.486;2023-03-23T10:14:40;7.13;;;3.10;;
12840;SDS011;6487;48.626;12.486;2023-03-23T10:17:30;3.40;;;2.80;;
12840;SDS011;6487;48.626;12.486;2023-03-23T10:20:09;3.60;;;3.30;;
12840;SDS011;6487;48.626;12.486;2023-03-23T10:23:01;3.20;;;2.90;;
12840;SDS011;6487;48.626;12.486;2023-03-23T10:25:41;5.47;;;2.40;;
12840;SDS011;6487;48.626;12.486;2023-03-23T10:28:13;5.00;;;2.47;;
12840;SDS011;6487;48.626;12.486;2023-03-23T10:30:45;2.37;;;1.40;;
12840;SDS011;6487;48.626;12.486;2023-03-23T10:33:22;4.23;;;2.13;;
12840;SDS011;6487;48.626;12.486;2023-03-23T10:35:57;2.10;;;1.80;;
12840;SDS011;6487;48.626;12.486;2023-03-23T10:38:34;3.07;;;1.57;;
12840;SDS011;6487;48.626;12.486;2023-03-23T10:41:04;3.67;;;1.83;;
12840;SDS011;6487;48.626;12.486;2023-03-23T10:43:37;2.07;;;1.83;;
12840;SDS011;6487;48.626;12.486;2023-03-23T10:46:10;2.40;;;2.20;;
12840;SDS011;6487;48.626;12.486;2023-03-23T10:49:01;1.57;;;1.43;;
12840;SDS011;6487;48.626;12.486;2023-03-23T10:51:35;2.00;;;1.70;;
12840;SDS011;6487;48.626;12.486;2023-03-23T10:54:08;2.60;;;1.83;;
12840;SDS011;6487;48.626;12.486;2023-03-23T10:56:37;3.50;;;2.57;;
12840;SDS011;6487;48.626;12.486;2023-03-23T10:59:13;3.37;;;2.83;;
12840;SDS011;6487;48.626;12.486;2023-03-23T11:01:48;4.93;;;1.90;;
12840;SDS011;6487;48.626;12.486;2023-03-23T11:04:20;2.70;;;1.93;;
12840;SDS011;6487;48.626;12.486;2023-03-23T11:06:52;1.90;;;1.73;;
12840;SDS011;6487;48.626;12.486;2023-03-23T11:09:33;2.30;;;1.40;;
12840;SDS011;6487;48.626;12.486;2023-03-23T11:12:02;3.20;;;2.10;;
12840;SDS011;6487;48.626;12.486;2023-03-23T11:14:31;2.37;;;1.73;;
12840;SDS011;6487;48.626;12.486;2023-03-23T11:17:05;2.17;;;1.70;;
12840;SDS011;6487;48.626;12.486;2023-03-23T11:19:48;1.60;;;1.33;;
12840;SDS011;6487;48.626;12.486;2023-03-23T11:22:17;2.33;;;1.80;;
12840;SDS011;6487;48.626;12.486;2023-03-23T11:24:52;3.87;;;1.73;;
12840;SDS011;6487;48.626;12.486;2023-03-23T11:27:21;2.33;;;1.90;;
12840;SDS011;6487;48.626;12.486;2023-03-23T11:29:50;1.60;;;1.50;;
12840;SDS011;6487;48.626;12.486;2023-03-23T11:32:22;1.80;;;1.70;;
12840;SDS011;6487;48.626;12.486;2023-03-23T11:34:56;2.63;;;1.57;;
12840;SDS011;6487;48.626;12.486;2023-03-23T11:37:28;1.93;;;1.60;;
12840;SDS011;6487;48.626;12.486;2023-03-23T11:39:59;2.30;;;1.73;;
12840;SDS011;6487;48.626;12.486;2023-03-23T11:42:38;4.37;;;1.90;;
12840;SDS011;6487;48.626;12.486;2023-03-23T11:45:14;2.53;;;2.10;;
12840;SDS011;6487;48.626;12.486;2023-03-23T11:47:49;3.60;;;2.60;;
12840;SDS011;6487;48.626;12.486;2023-03-23T11:50:27;3.57;;;2.30;;
12840;SDS011;6487;48.626;12.486;2023-03-23T11:53:00;3.83;;;3.37;;
12840;SDS011;6487;48.626;12.486;2023-03-23T11:55:35;4.23;;;2.40;;
12840;SDS011;6487;48.626;12.486;2023-03-23T11:58:26;2.17;;;1.97;;
12840;SDS011;6487;48.626;12.486;2023-03-23T12:00:58;3.10;;;1.70;;
12840;SDS011;6487;48.626;12.486;2023-03-23T12:03:37;2.27;;;1.90;;
12840;SDS011;6487;48.626;12.486;2023-03-23T12:06:29;2.07;;;1.73;;
12840;SDS011;6487;48.626;12.486;2023-03-23T12:09:08;4.37;;;2.00;;
12840;SDS011;6487;48.626;12.486;2023-03-23T12:11:52;2.60;;;2.40;;
12840;SDS011;6487;48.626;12.486;2023-03-23T12:14:36;2.20;;;1.83;;
12840;SDS011;6487;48.626;12.486;2023-03-23T12:17:14;2.10;;;1.90;;
12840;SDS011;6487;48.626;12.486;2023-03-23T12:19:53;1.80;;;1.60;;
12840;SDS011;6487;48.626;12.486;2023-03-23T12:22:40;1.53;;;1.43;;
12840;SDS011;6487;48.626;12.486;2023-03-23T12:25:32;1.80;;;1.60;;
12840;SDS011;6487;48.626;12.486;2023-03-23T12:28:29;2.20;;;2.00;;
12840;SDS011;6487;48.626;12.486;2023-03-23T12:31:10;2.57;;;1.80;;
12840;SDS011;6487;48.626;12.486;2023-03-23T12:33:54;1.87;;;1.47;;
12840;SDS011;6487;48.626;12.486;2023-03-23T12:36:30;3.60;;;1.97;;
12840;SDS011;6487;48.626;12.486;2023-03-23T12:39:27;2.97;;;1.60;;
12840;SDS011;6487;48.626;12.486;2023-03-23T12:42:10;1.83;;;1.60;;
12840;SDS011;6487;48.626;12.486;2023-03-23T12:44:45;1.87;;;1.63;;
12840;SDS011;6487;48.626;12.486;2023-03-23T12:47:38;1.70;;;1.50;;
12840;SDS011;6487;48.626;12.486;2023-03-23T12:50:11;3.13;;;1.30;;
12840;SDS011;6487;48.626;12.486;2023-03-23T12:52:47;1.83;;;1.60;;
12840;SDS011;6487;48.626;12.486;2023-03-23T12:55:26;1.40;;;1.30;;
12840;SDS011;6487;48.626;12.486;2023-03-23T12:58:00;2.47;;;1.57;;
12840;SDS011;6487;48.626;12.486;2023-03-23T13:00:33;2.30;;;1.60;;
12840;SDS011;6487;48.626;12.486;2023-03-23T13:03:22;3.27;;;1.70;;
12840;SDS011;6487;48.626;12.486;2023-03-23T13:05:58;1.73;;;1.50;;
12840;SDS011;6487;48.626;12.486;2023-03-23T13:08:33;1.30;;;1.20;;
12840;SDS011;6487;48.626;12.486;2023-03-23T13:11:10;3.27;;;1.40;;
12840;SDS011;6487;48.626;12.486;2023-03-23T13:13:47;1.57;;;1.27;;
12840;SDS011;6487;48.626;12.486;2023-03-23T13:16:28;1.60;;;1.50;;
12840;SDS011;6487;48.626;12.486;2023-03-23T13:19:08;4.47;;;1.40;;
12840;SDS011;6487;48.626;12.486;2023-03-23T13:21:48;2.93;;;1.40;;
12840;SDS011;6487;48.626;12.486;2023-03-23T13:24:23;2.03;;;1.30;;
12840;SDS011;6487;48.626;12.486;2023-03-23T13:27:01;2.57;;;1.53;;
12840;SDS011;6487;48.626;12.486;2023-03-23T13:29:28;1.50;;;1.40;;
12840;SDS011;6487;48.626;12.486;2023-03-23T13:32:04;2.10;;;1.33;;
12840;SDS011;6487;48.626;12.486;2023-03-23T13:34:38;1.50;;;1.40;;
12840;SDS011;6487;48.626;12.486;2023-03-23T13:37:09;1.70;;;1.60;;
12840;SDS011;6487;48.626;12.486;2023-03-23T13:39:50;2.83;;;1.57;;
12840;SDS011;6487;48.626;12.486;2023-03-23T13:42:23;2.10;;;1.30;;
12840;SDS011;6487;48.626;12.486;2023-03-23T13:44:56;2.23;;;1.80;;
12840;SDS011;6487;48.626;12.486;2023-03-23T13:47:36;2.30;;;1.80;;
12840;SDS011;6487;48.626;12.486;2023-03-23T13:50:10;3.77;;;1.40;;
12840;SDS011;6487;48.626;12.486;2023-03-23T13:52:54;8.87;;;2.00;;
12840;SDS011;6487;48.626;12.486;2023-03-23T13:58:23;2.13;;;1.93;;
12840;SDS011;6487;48.626;12.486;2023-03-23T14:01:01;3.50;;;1.87;;
12840;SDS011;6487;48.626;12.486;2023-03-23T14:03:41;1.53;;;1.43;;
12840;SDS011;6487;48.626;12.486;2023-03-23T14:06:15;4.03;;;1.60;;
12840;SDS011;6487;48.626;12.486;2023-03-23T14:08:48;1.63;;;1.53;;
12840;SDS011;6487;48.626;12.486;2023-03-23T14:11:19;1.93;;;1.60;;
12840;SDS011;6487;48.626;12.486;2023-03-23T14:14:00;2.37;;;1.30;;
12840;SDS011;6487;48.626;12.486;2023-03-23T14:16:31;1.30;;;1.20;;
12840;SDS011;6487;48.626;12.486;2023-03-23T14:19:04;2.13;;;1.53;;
12840;SDS011;6487;48.626;12.486;2023-03-23T14:21:48;2.57;;;1.50;;
12840;SDS011;6487;48.626;12.486;2023-03-23T14:24:19;1.77;;;1.40;;
12840;SDS011;6487;48.626;12.486;2023-03-23T14:26:50;2.70;;;1.60;;
12840;SDS011;6487;48.626;12.486;2023-03-23T14:29:21;1.60;;;1.50;;
12840;SDS011;6487;48.626;12.486;2023-03-23T14:31:52;4.83;;;2.03;;
12840;SDS011;6487;48.626;12.486;2023-03-23T14:34:22;3.80;;;1.60;;
12840;SDS011;6487;48.626;12.486;2023-03-23T14:36:54;3.03;;;1.30;;
12840;SDS011;6487;48.626;12.486;2023-03-23T14:39:23;2.13;;;1.20;;
12840;SDS011;6487;48.626;12.486;2023-03-23T14:41:53;3.10;;;1.40;;
12840;SDS011;6487;48.626;12.486;2023-03-23T14:44:26;1.70;;;1.43;;
12840;SDS011;6487;48.626;12.486;2023-03-23T14:46:56;3.07;;;1.50;;
12840;SDS011;6487;48.626;12.486;2023-03-23T14:49:29;2.97;;;1.43;;
12840;SDS011;6487;48.626;12.486;2023-03-23T14:52:07;1.83;;;1.50;;
12840;SDS011;6487;48.626;12.486;2023-03-23T14:54:37;2.50;;;1.53;;
12840;SDS011;6487;48.626;12.486;2023-03-23T14:57:11;1.80;;;1.27;;
12840;SDS011;6487;48.626;12.486;2023-03-23T14:59:41;1.70;;;1.50;;
12840;SDS011;6487;48.626;12.486;2023-03-23T15:02:11;1.97;;;1.60;;
12840;SDS011;6487;48.626;12.486;2023-03-23T15:04:41;2.73;;;1.47;;
12840;SDS011;6487;48.626;12.486;2023-03-23T15:07:11;1.87;;;1.50;;
12840;SDS011;6487;48.626;12.486;2023-03-23T15:09:41;3.93;;;1.57;;
12840;SDS011;6487;48.626;12.486;2023-03-23T15:12:13;1.73;;;1.63;;
12840;SDS011;6487;48.626;12.486;2023-03-23T15:14:51;2.43;;;1.50;;
12840;SDS011;6487;48.626;12.486;2023-03-23T15:17:21;2.27;;;1.73;;
12840;SDS011;6487;48.626;12.486;2023-03-23T15:19:52;2.00;;;1.60;;
12840;SDS011;6487;48.626;12.486;2023-03-23T15:22:22;1.80;;;1.33;;
12840;SDS011;6487;48.626;12.486;2023-03-23T15:24:51;2.37;;;1.30;;
12840;SDS011;6487;48.626;12.486;2023-03-23T15:27:28;2.07;;;1.50;;